createdAt,value
2022-10-19T00:00:19.056Z,32.15
2022-10-19T00:03:23.283Z,32.72
2022-10-19T00:06:29.880Z,31.20
2022-10-19T00:09:33.309Z,31.97
2022-10-19T00:12:36.446Z,31.90
2022-10-19T00:15:42.351Z,31.98
2022-10-19T00:18:46.657Z,31.40
2022-10-19T00:24:55.915Z,30.37
2022-10-19T00:28:01.451Z,29.40
2022-10-19T00:31:06.787Z,29.80
2022-10-19T00:34:10.429Z,28.80
2022-10-19T00:37:12.995Z,28.20
2022-10-19T00:40:16.959Z,27.27
2022-10-19T00:43:31.471Z,26.30
2022-10-19T00:46:37.729Z,26.33
2022-10-19T00:49:44.821Z,27.20
2022-10-19T00:52:47.930Z,27.75
2022-10-19T00:55:50.737Z,28.80
2022-10-19T00:58:53.889Z,27.10
2022-10-19T01:01:56.716Z,27.52
2022-10-19T01:05:01.482Z,27.13
2022-10-19T01:08:09.747Z,26.95
2022-10-19T01:11:18.937Z,27.50
2022-10-19T01:14:28.324Z,28.20
2022-10-19T01:18:21.816Z,27.67
2022-10-19T01:21:47.088Z,26.85
2022-10-19T01:25:24.027Z,27.10
2022-10-19T01:28:44.616Z,26.90
2022-10-19T01:32:05.768Z,25.97
2022-10-19T01:35:34.053Z,26.45
2022-10-19T01:39:09.307Z,25.75
2022-10-19T01:42:18.987Z,22.83
2022-10-19T01:45:30.487Z,24.30
2022-10-19T01:48:39.012Z,23.73
2022-10-19T01:51:48.748Z,23.80
2022-10-19T01:54:57.109Z,23.98
2022-10-19T01:58:08.303Z,23.85
2022-10-19T02:01:15.749Z,23.53
2022-10-19T02:04:21.673Z,22.07
2022-10-19T02:07:25.350Z,22.60
2022-10-19T02:10:31.208Z,22.33
2022-10-19T02:13:35.814Z,21.83
2022-10-19T02:16:47.907Z,21.30
2022-10-19T02:19:51.163Z,20.77
2022-10-19T02:22:53.909Z,21.77
2022-10-19T02:25:57.901Z,26.10
2022-10-19T02:29:03.527Z,24.90
2022-10-19T02:32:09.088Z,23.37
2022-10-19T02:35:14.567Z,22.70
2022-10-19T02:38:22.141Z,21.70
2022-10-19T02:41:32.264Z,20.73
2022-10-19T02:44:48.128Z,17.98
2022-10-19T02:48:21.935Z,17.90
2022-10-19T02:51:33.027Z,16.40
2022-10-19T02:54:37.478Z,14.77
2022-10-19T02:57:40.554Z,14.82
2022-10-19T03:00:43.644Z,15.13
2022-10-19T03:03:46.811Z,16.63
2022-10-19T03:06:49.527Z,16.70
2022-10-19T03:09:53.317Z,16.45
2022-10-19T03:12:58.557Z,15.70
2022-10-19T03:16:11.912Z,17.33
2022-10-19T03:19:14.695Z,15.90
2022-10-19T03:22:18.168Z,15.43
2022-10-19T03:25:21.054Z,15.38
2022-10-19T03:28:23.957Z,13.77
2022-10-19T03:31:27.288Z,13.55
2022-10-19T03:34:30.465Z,14.50
2022-10-19T03:37:33.303Z,13.60
2022-10-19T03:40:36.884Z,12.77
2022-10-19T03:43:41.388Z,12.73
2022-10-19T03:46:47.308Z,12.23
2022-10-19T03:49:54.194Z,13.80
2022-10-19T03:52:57.145Z,13.00
2022-10-19T03:56:14.804Z,11.98
2022-10-19T03:59:20.677Z,12.18
2022-10-19T04:02:23.299Z,12.75
2022-10-19T04:05:26.293Z,12.97
2022-10-19T04:08:28.925Z,13.63
2022-10-19T04:11:34.916Z,12.35
2022-10-19T04:14:56.200Z,12.57
2022-10-19T04:18:01.226Z,12.37
2022-10-19T04:21:06.349Z,12.13
2022-10-19T04:24:15.143Z,12.57
2022-10-19T04:27:35.297Z,11.82
2022-10-19T04:30:38.848Z,13.48
2022-10-19T04:33:42.581Z,12.18
2022-10-19T04:36:46.329Z,11.23
2022-10-19T04:39:49.244Z,11.70
2022-10-19T04:42:52.125Z,11.75
2022-10-19T04:45:55.807Z,11.07
2022-10-19T04:49:01.412Z,11.35
2022-10-19T04:52:05.432Z,11.47
2022-10-19T04:55:09.224Z,12.13
2022-10-19T04:58:18.339Z,11.10
2022-10-19T05:01:24.050Z,11.57
2022-10-19T05:04:27.087Z,11.05
2022-10-19T05:07:32.157Z,11.63
2022-10-19T05:10:37.112Z,11.63
2022-10-19T05:13:42.920Z,11.38
2022-10-19T05:16:46.335Z,12.10
2022-10-19T05:19:49.309Z,11.12
2022-10-19T05:22:54.138Z,11.60
2022-10-19T05:26:12.920Z,11.73
2022-10-19T05:29:16.732Z,12.15
2022-10-19T05:32:22.879Z,12.10
2022-10-19T05:35:26.777Z,11.65
2022-10-19T05:38:30.119Z,12.07
2022-10-19T05:41:34.227Z,12.37
2022-10-19T05:47:41.848Z,12.32
2022-10-19T05:50:55.805Z,12.23
2022-10-19T05:53:58.922Z,11.30
2022-10-19T05:57:02.689Z,11.97
2022-10-19T06:00:07.083Z,11.88
2022-10-19T06:03:15.925Z,11.57
2022-10-19T06:06:25.971Z,11.70
2022-10-19T06:09:35.985Z,11.03
2022-10-19T06:12:39.460Z,10.23
2022-10-19T06:15:43.683Z,11.07
2022-10-19T06:18:47.111Z,11.55
2022-10-19T06:21:50.881Z,10.80
2022-10-19T06:24:54.969Z,10.60
2022-10-19T06:27:58.904Z,11.33
2022-10-19T06:31:09.661Z,10.30
2022-10-19T06:34:13.439Z,10.48
2022-10-19T06:37:17.463Z,10.68
2022-10-19T06:40:20.882Z,9.77
2022-10-19T06:43:24.476Z,9.37
2022-10-19T06:46:34.217Z,9.55
2022-10-19T06:49:42.383Z,8.60
2022-10-19T06:52:48.474Z,9.68
2022-10-19T06:55:53.579Z,9.47
2022-10-19T06:58:56.437Z,8.23
2022-10-19T07:02:00.690Z,9.15
2022-10-19T07:05:07.962Z,8.82
2022-10-19T07:08:12.006Z,8.30
2022-10-19T07:11:18.008Z,8.63
2022-10-19T07:14:25.009Z,8.47
2022-10-19T07:17:33.226Z,9.25
2022-10-19T07:20:38.133Z,8.40
2022-10-19T07:23:44.263Z,8.82
2022-10-19T07:26:50.316Z,9.10
2022-10-19T07:29:53.072Z,8.50
2022-10-19T07:32:56.100Z,8.10
2022-10-19T07:36:00.884Z,8.65
2022-10-19T07:39:06.408Z,8.18
2022-10-19T07:42:09.634Z,8.27
2022-10-19T07:45:16.744Z,7.93
2022-10-19T07:48:20.083Z,6.78
2022-10-19T07:51:23.316Z,6.40
2022-10-19T07:54:27.530Z,6.20
2022-10-19T07:57:30.590Z,6.40
2022-10-19T08:00:33.556Z,7.63
2022-10-19T08:07:12.012Z,8.05
2022-10-19T08:10:16.556Z,7.22
2022-10-19T08:13:20.702Z,7.77
2022-10-19T08:16:29.127Z,6.73
2022-10-19T08:19:33.185Z,6.68
2022-10-19T08:22:37.479Z,7.03
2022-10-19T08:25:42.952Z,6.20
2022-10-19T08:28:47.608Z,6.33
2022-10-19T08:31:50.489Z,5.90
2022-10-19T08:34:55.279Z,5.37
2022-10-19T08:37:58.733Z,5.60
2022-10-19T08:41:19.357Z,4.87
2022-10-19T08:44:46.510Z,4.73
2022-10-19T08:47:59.987Z,5.47
2022-10-19T08:51:05.672Z,5.05
2022-10-19T08:54:23.073Z,5.12
2022-10-19T08:57:36.463Z,5.10
2022-10-19T09:01:10.884Z,4.77
2022-10-19T09:04:20.156Z,5.30
2022-10-19T09:07:32.765Z,5.07
2022-10-19T09:10:43.195Z,5.00
2022-10-19T09:14:04.703Z,5.10
2022-10-19T09:17:15.933Z,5.10
2022-10-19T09:20:23.212Z,5.00
2022-10-19T09:23:40.013Z,4.70
2022-10-19T09:26:52.208Z,5.03
2022-10-19T09:29:59.225Z,4.97
2022-10-19T09:33:03.047Z,4.93
2022-10-19T09:36:10.402Z,4.70
2022-10-19T09:39:17.635Z,4.45
2022-10-19T09:42:26.375Z,4.80
2022-10-19T09:45:35.758Z,4.95
2022-10-19T09:48:46.003Z,5.57
2022-10-19T09:51:52.407Z,5.30
2022-10-19T09:55:07.199Z,5.10
2022-10-19T09:58:14.004Z,5.53
2022-10-19T10:01:41.486Z,5.45
2022-10-19T10:05:03.754Z,5.00
2022-10-19T10:08:19.799Z,5.00
2022-10-19T10:11:31.992Z,4.97
2022-10-19T10:14:37.031Z,4.80
2022-10-19T10:17:40.124Z,5.12
2022-10-19T10:21:25.184Z,5.33
2022-10-19T10:24:30.979Z,4.40
2022-10-19T10:27:37.095Z,4.93
2022-10-19T10:30:53.906Z,4.40
2022-10-19T10:34:11.144Z,4.05
2022-10-19T10:37:41.845Z,4.20
2022-10-19T10:41:01.915Z,3.93
2022-10-19T10:44:19.191Z,4.25
2022-10-19T10:47:32.460Z,3.83
2022-10-19T10:50:37.317Z,4.10
2022-10-19T10:53:43.594Z,3.77
2022-10-19T10:57:06.349Z,3.40
2022-10-19T11:00:18.372Z,3.30
2022-10-19T11:03:32.856Z,2.30
2022-10-19T11:06:44.830Z,2.05
2022-10-19T11:09:54.286Z,2.00
2022-10-19T11:13:24.103Z,2.30
2022-10-19T11:16:29.965Z,2.15
2022-10-19T11:19:37.995Z,2.20
2022-10-19T11:23:10.015Z,1.70
2022-10-19T11:26:39.687Z,1.50
2022-10-19T11:29:52.652Z,1.70
2022-10-19T11:32:59.137Z,1.60
2022-10-19T11:36:07.991Z,1.70
2022-10-19T11:39:44.994Z,1.55
2022-10-19T11:43:04.894Z,1.40
2022-10-19T11:46:35.172Z,1.47
2022-10-19T11:49:59.305Z,1.40
2022-10-19T11:53:20.661Z,1.30
2022-10-19T11:57:03.963Z,1.58
2022-10-19T12:00:38.238Z,2.07
2022-10-19T12:04:19.991Z,1.70
2022-10-19T12:07:45.022Z,1.52
2022-10-19T12:11:19.052Z,1.48
2022-10-19T12:14:31.276Z,1.50
2022-10-19T12:17:44.254Z,1.80
2022-10-19T12:20:53.532Z,1.50
2022-10-19T12:24:00.777Z,2.30
2022-10-19T12:27:18.143Z,1.40
2022-10-19T12:30:26.489Z,1.30
2022-10-19T12:33:47.983Z,1.47
2022-10-19T12:37:07.540Z,1.43
2022-10-19T12:40:23.972Z,1.35
2022-10-19T12:43:43.607Z,1.70
2022-10-19T12:46:57.561Z,1.17
2022-10-19T12:50:09.134Z,1.27
2022-10-19T12:56:48.771Z,1.42
2022-10-19T13:00:24.096Z,1.40
2022-10-19T13:03:43.079Z,1.50
2022-10-19T13:07:00.995Z,1.60
2022-10-19T13:10:20.418Z,1.60
2022-10-19T13:13:57.556Z,1.67
2022-10-19T13:17:02.758Z,1.80
2022-10-19T13:20:20.239Z,1.30
2022-10-19T13:23:32.215Z,1.60
2022-10-19T13:26:36.278Z,1.67
2022-10-19T13:29:42.925Z,1.52
2022-10-19T13:32:46.287Z,1.60
2022-10-19T13:36:00.343Z,1.62
2022-10-19T13:39:08.758Z,1.77
2022-10-19T13:42:31.039Z,1.70
2022-10-19T13:45:39.247Z,2.12
2022-10-19T13:49:04.200Z,2.00
2022-10-19T13:52:35.362Z,1.80
2022-10-19T13:56:22.880Z,2.10
2022-10-19T13:59:54.980Z,2.20
2022-10-19T14:03:29.230Z,2.12
2022-10-19T14:06:44.179Z,2.10
2022-10-19T14:10:14.414Z,2.40
2022-10-19T14:13:26.237Z,2.40
2022-10-19T14:16:37.926Z,2.33
2022-10-19T14:20:00.302Z,2.20
2022-10-19T14:23:27.265Z,2.47
2022-10-19T14:26:35.068Z,2.67
2022-10-19T14:29:49.791Z,2.95
2022-10-19T14:32:58.039Z,3.03
2022-10-19T14:36:18.006Z,3.00
2022-10-19T14:39:35.167Z,3.25
2022-10-19T14:42:43.260Z,3.15
2022-10-19T14:46:06.663Z,4.03
2022-10-19T14:49:16.321Z,4.83
2022-10-19T14:52:35.089Z,3.15
2022-10-19T14:55:43.017Z,3.00
2022-10-19T14:58:58.845Z,3.12
2022-10-19T15:02:13.000Z,2.70
2022-10-19T15:05:23.941Z,2.80
2022-10-19T15:08:45.120Z,3.45
2022-10-19T15:11:53.152Z,3.22
2022-10-19T15:15:01.430Z,3.10
2022-10-19T15:18:43.374Z,3.30
2022-10-19T15:21:47.154Z,3.60
2022-10-19T15:24:58.223Z,3.50
2022-10-19T15:28:22.324Z,3.33
2022-10-19T15:31:30.353Z,3.20
2022-10-19T15:34:43.997Z,3.50
2022-10-19T15:37:56.921Z,4.07
2022-10-19T15:41:07.691Z,3.47
2022-10-19T15:44:33.143Z,3.28
2022-10-19T15:47:37.975Z,4.67
2022-10-19T15:50:48.059Z,5.73
2022-10-19T15:54:15.982Z,4.60
2022-10-19T15:57:31.025Z,3.62
2022-10-19T16:00:43.272Z,3.92
2022-10-19T16:03:47.247Z,4.10
2022-10-19T16:06:52.034Z,3.87
2022-10-19T16:10:06.976Z,3.92
2022-10-19T16:13:11.173Z,3.30
2022-10-19T16:16:22.812Z,3.55
2022-10-19T16:19:35.136Z,3.70
2022-10-19T16:22:40.007Z,3.23
2022-10-19T16:26:01.482Z,3.30
2022-10-19T16:29:26.728Z,4.18
2022-10-19T16:57:46.010Z,3.70
2022-10-19T17:00:58.008Z,3.40
2022-10-19T17:04:03.655Z,3.72
2022-10-19T17:07:09.039Z,3.37
2022-10-19T17:10:23.220Z,4.15
2022-10-19T17:13:35.991Z,3.93
2022-10-19T17:16:41.942Z,3.73
2022-10-19T17:20:00.269Z,3.20
2022-10-19T17:23:56.170Z,3.20
2022-10-19T17:27:09.550Z,3.80
2022-10-19T17:30:19.025Z,4.53
2022-10-19T17:33:29.485Z,5.43
2022-10-19T17:39:52.138Z,4.95
2022-10-19T17:43:13.016Z,4.57
2022-10-19T17:46:32.271Z,4.97
2022-10-19T17:49:59.962Z,5.70
2022-10-19T17:53:06.603Z,5.10
2022-10-19T17:56:20.248Z,4.50
2022-10-19T17:59:46.633Z,4.40
2022-10-19T18:06:47.478Z,4.13
2022-10-19T18:10:03.015Z,3.78
2022-10-19T18:13:20.075Z,3.75
2022-10-19T18:17:04.826Z,3.58
2022-10-19T18:20:27.157Z,4.20
2022-10-19T18:23:39.169Z,4.07
2022-10-19T18:26:43.202Z,4.12
2022-10-19T18:29:49.118Z,3.92
2022-10-19T18:32:54.934Z,4.12
2022-10-19T18:36:01.000Z,3.93
2022-10-19T18:39:07.750Z,4.00
2022-10-19T18:42:13.310Z,3.90
2022-10-19T18:45:19.979Z,4.32
2022-10-19T18:48:29.171Z,3.70
2022-10-19T18:51:54.289Z,3.43
2022-10-19T18:55:08.137Z,3.80
2022-10-19T18:58:21.207Z,4.37
2022-10-19T19:01:35.947Z,4.25
2022-10-19T19:04:55.064Z,4.68
2022-10-19T19:08:09.010Z,5.13
2022-10-19T19:11:22.446Z,5.27
2022-10-19T19:14:26.509Z,4.93
2022-10-19T19:17:31.048Z,5.05
2022-10-19T19:20:48.030Z,4.35
2022-10-19T19:24:00.034Z,5.10
2022-10-19T19:27:05.183Z,4.20
2022-10-19T19:30:11.999Z,4.18
2022-10-19T19:33:16.108Z,4.37
2022-10-19T19:36:32.216Z,3.53
2022-10-19T19:39:46.152Z,3.33
2022-10-19T19:42:50.111Z,3.40
2022-10-19T19:46:07.908Z,3.60
2022-10-19T19:49:15.979Z,3.58
2022-10-19T19:52:22.998Z,5.40
2022-10-19T19:55:28.724Z,5.07
2022-10-19T19:58:38.028Z,4.73
2022-10-19T20:01:43.022Z,7.72
2022-10-19T20:04:46.953Z,6.22
2022-10-19T20:07:51.355Z,5.70
2022-10-19T20:10:55.269Z,6.53
2022-10-19T20:14:00.252Z,7.30
2022-10-19T20:17:04.718Z,7.20
2022-10-19T20:20:14.439Z,6.62
2022-10-19T20:23:17.816Z,6.10
2022-10-19T20:26:49.118Z,4.97
2022-10-19T20:30:00.975Z,4.83
2022-10-19T20:33:06.951Z,4.62
2022-10-19T20:45:39.245Z,4.70
2022-10-19T20:48:59.988Z,3.80
2022-10-19T20:52:13.443Z,4.18
2022-10-19T20:55:16.907Z,4.40
2022-10-19T20:58:21.987Z,4.15
2022-10-19T21:01:27.298Z,3.90
2022-10-19T21:04:31.715Z,4.63
2022-10-19T21:07:34.491Z,4.57
2022-10-19T21:10:37.858Z,5.00
2022-10-19T21:13:41.586Z,4.32
2022-10-19T21:16:45.041Z,4.70
2022-10-19T21:19:48.918Z,5.30
2022-10-19T21:22:52.282Z,4.43
2022-10-19T21:26:03.200Z,4.28
2022-10-19T21:29:09.766Z,4.35
2022-10-19T21:32:12.867Z,4.27
2022-10-19T21:35:16.252Z,3.90
2022-10-19T21:38:19.292Z,3.65
2022-10-19T21:41:26.199Z,3.62
2022-10-19T21:44:30.084Z,3.87
2022-10-19T21:47:33.169Z,3.80
2022-10-19T21:50:42.305Z,3.70
2022-10-19T21:53:47.151Z,3.47
2022-10-19T21:56:50.786Z,3.72
2022-10-19T21:59:53.765Z,3.47
2022-10-19T22:02:56.752Z,3.40
2022-10-19T22:06:00.788Z,3.30
2022-10-19T22:09:06.434Z,3.30
2022-10-19T22:12:10.094Z,3.33
2022-10-19T22:15:15.036Z,3.20
2022-10-19T22:18:19.323Z,3.50
2022-10-19T22:21:25.811Z,3.00
2022-10-19T22:24:29.281Z,3.00
2022-10-19T22:27:32.434Z,3.10
2022-10-19T22:33:45.944Z,3.30
2022-10-19T22:36:50.764Z,3.53
2022-10-19T22:39:54.006Z,3.58
2022-10-19T22:42:57.276Z,3.20
2022-10-19T22:46:00.249Z,4.12
2022-10-19T22:49:04.531Z,3.87
2022-10-19T22:52:08.101Z,3.90
2022-10-19T22:55:12.439Z,3.22
2022-10-19T22:58:15.961Z,3.87
2022-10-19T23:01:19.600Z,3.42
2022-10-19T23:04:22.976Z,3.37
2022-10-19T23:07:26.367Z,3.63
2022-10-19T23:10:29.611Z,3.97
2022-10-19T23:13:32.757Z,4.20
2022-10-19T23:16:38.947Z,3.58
2022-10-19T23:19:42.105Z,3.53
2022-10-19T23:22:45.131Z,3.70
2022-10-19T23:26:08.417Z,3.83
2022-10-19T23:29:12.386Z,3.80
2022-10-19T23:32:15.617Z,3.55
2022-10-19T23:35:18.241Z,3.60
2022-10-19T23:38:21.068Z,4.03
2022-10-19T23:41:24.825Z,3.90
2022-10-19T23:44:27.898Z,3.62
2022-10-19T23:47:30.661Z,3.55
2022-10-19T23:50:33.412Z,3.83
2022-10-19T23:53:40.897Z,3.60
2022-10-19T23:56:45.774Z,4.00
2022-10-19T23:59:48.302Z,4.07
